Terminal Aerodrome Forecast
Issued by NWS

Current Version | Previous Version | Graphics & Text | Print | Product List | Glossary On
Versions: 1 2 3 4 5 6 7 8 9 10 11 12 13 14 15 16 17 18 19
648
FTUS41 KILN 171124
TAFLUK
TAF
KLUK 171124Z 1712/1812 25011G18KT P6SM BKN040
      TEMPO 1712/1714 BKN028
     FM171400 28013G23KT P6SM BKN050
     FM171900 28013G20KT P6SM SCT050
     FM180000 34004KT P6SM SCT150
     FM180800 07006KT P6SM OVC060=

USA.gov is the U.S. government's official web portal to all federal, state and local government web resources and services.